Airfield :
LOGIN :

Register | Disclaimer

   EN    FR    IT 

 










Legend :    VFR   Marginal VFR   IFR   Intensive IFR   Very Intensive IFR
Visi :
Ceiling :
>= 8 km
>= 3000ft
5 to 8 km
1000 to 3000 ft
1500m to 5 km
500 to 1000 ft
800 to 1500m
200 to 500 ft
< 800m
< 200 ft
Symbols :   Thunderstorms  Fog  Heavy snow  Heavy precipitations  Wind > 20 kt
SIGMETs :     Misc.  Thunderstorms  Icing  Turbulence  Mountain Waves  Volcanic Ashes







- Airport Elevation : 13 ft
- IATA code : LYX
- Download approach charts


EGMD - Lydd

CURRENT METAR :
  • 262050Z AUTO 24013KT 9000 OVC003/// 14/13 Q1012

EXPIRED METARs :
  • 262020Z AUTO 24013KT 7000 BKN003/// OVC006/// 14/13 Q1012
  • 261950Z AUTO 25013KT 9000 OVC002/// 14/13 Q1011
  • 261920Z AUTO 24018KT 8000 OVC002/// 14/13 Q1011
  • 261850Z AUTO 24017KT 9999 OVC003/// 14/13 Q1012
  • 261820Z AUTO 24019KT 9999 OVC003/// 14/13 Q1011

TAF TAF EGMD
Valid from the 26 at 21:00 until the 27 at 06:00 UTC


261959Z 2621/2706 24015KT 9999 FEW020
TEMPO 2621/2623 5000 -RADZ OVC002
PROB30
TEMPO 2621/2623 3000 RADZ
ATIS : +44 1797 322 422
No reported NOTAMs for that airfield.
1 SIGMET reported for the London FIR (EGTT) :
 
Severe mountain waves
EGTT SIGMET 02 VALID 261900/262300 EGRR
EGTT LONDON FIR SEV MTW FCST N OF LINE N5350 W00530 - N5306 E00322 FL030/150 STNR NC=



MET'MAP, your aeronautical weather chart ! - Copyright ORBIFLY December 2007 - Disclaimer

ORBIFLY MET'MAP TEAM :

Programming & Development : Alexandra Zaïnal
Concept & Development : Baudouin d'Aumeries
Co-Development & Prog : Marc-Olivier Méhu
Technical & hardware support : Manuel Goepfert

Contact : metmap@orbifly.com




SOURCES & CREDITS :

   NOAA